Time;durP1;ratioP1;P1;durP2;ratioP2;P2;SDS_P1;SDS_P2;PMS_P1;PMS_P2;Temp;Humidity;BMP_temperature;BMP_pressure;BME280_temperature;BME280_humidity;BME280_pressure;Samples;Min_cycle;Max_cycle;Signal;HPM_P1;HPM_P2
2023/11/28 20:25:07;;;;;;;;;6.00;6.00;;;;;20.39;41.82;100867.53;5716794;23;46706;-78
2023/11/28 20:27:33;;;;;;;;;5.75;5.75;;;;;20.43;42.15;100861.91;4956360;28;45847;-75
2023/11/28 20:29:58;;;;;;;;;5.00;5.00;;;;;20.42;42.14;100855.78;4941041;28;46202;-76
2023/11/28 20:32:24;;;;;;;;;6.00;6.00;;;;;20.42;42.66;100855.78;4947987;28;45450;-79
2023/11/28 20:34:49;;;;;;;;;8.00;7.00;;;;;20.44;42.59;100852.97;4948043;28;45595;-78
2023/11/28 20:37:14;;;;;;;;;5.00;5.00;;;;;20.49;42.80;100851.47;4956226;28;45413;-77
2023/11/28 20:39:40;;;;;;;;;5.25;5.25;;;;;20.51;42.71;100856.56;4956533;28;55626;-78
2023/11/28 20:42:05;;;;;;;;;6.50;6.00;;;;;20.53;42.84;100856.41;4956397;28;49874;-77
2023/11/28 20:44:31;;;;;;;;;6.00;6.00;;;;;20.50;42.89;100854.94;4957952;28;45243;-76
2023/11/28 20:46:56;;;;;;;;;6.00;6.00;;;;;20.54;43.12;100856.25;4955888;28;45438;-77
2023/11/28 20:49:22;;;;;;;;;9.00;7.50;;;;;20.55;42.87;100857.91;4956820;28;45378;-75
2023/11/28 20:51:47;;;;;;;;;5.75;4.50;;;;;20.57;43.00;100858.53;4957018;28;45371;-75
2023/11/28 20:54:12;;;;;;;;;9.00;7.00;;;;;20.57;42.85;100847.97;4956924;28;45385;-76
2023/11/28 20:56:41;;;;;;;;;8.33;8.33;;;;;20.54;43.10;100839.53;4956762;28;45466;-78
2023/11/28 20:59:06;;;;;;;;;6.75;6.00;;;;;20.58;43.00;100849.59;4956771;28;46163;-77
2023/11/28 21:01:31;;;;;;;;;7.75;6.50;;;;;20.61;43.33;100856.38;4971467;28;45475;-79
2023/11/28 21:03:57;;;;;;;;;8.00;7.00;;;;;20.61;43.01;100853.72;4955198;28;45334;-79
2023/11/28 21:06:22;;;;;;;;;8.50;6.75;;;;;20.57;43.28;100841.84;4956872;28;47366;-77
2023/11/28 21:08:48;;;;;;;;;7.67;6.67;;;;;20.64;43.41;100842.81;4956794;28;46015;-77
2023/11/28 21:11:15;;;;;;;;;6.00;6.00;;;;;20.57;42.89;100831.28;4948533;28;45747;-76
2023/11/28 21:13:40;;;;;;;;;9.25;6.50;;;;;20.63;43.14;100833.25;4953781;28;45500;-74
2023/11/28 21:16:05;;;;;;;;;7.50;5.75;;;;;20.65;43.04;100838.38;4956083;28;45421;-76
2023/11/28 21:18:31;;;;;;;;;8.50;7.50;;;;;20.63;43.31;100839.34;4954637;28;47205;-78
2023/11/28 21:20:56;;;;;;;;;6.50;6.50;;;;;20.64;43.18;100840.16;4948666;28;45399;-75
2023/11/28 21:23:22;;;;;;;;;8.50;6.00;;;;;20.65;43.35;100841.00;4952886;28;45338;-74
2023/11/28 21:25:47;;;;;;;;;6.00;6.00;;;;;20.59;43.73;100831.94;4952829;28;45319;-73
2023/11/28 21:28:13;;;;;;;;;7.00;6.00;;;;;20.64;43.58;100829.59;4955811;28;47157;-72
2023/11/28 21:30:38;;;;;;;;;7.75;6.75;;;;;20.55;43.91;100817.41;4955672;28;45637;-72
2023/11/28 21:33:03;;;;;;;;;8.00;8.00;;;;;20.62;43.61;100832.44;4956120;28;45353;-71
2023/11/28 21:35:29;;;;;;;;;6.67;6.00;;;;;20.63;43.74;100838.53;4954967;28;45645;-71
2023/11/28 21:37:54;;;;;;;;;8.33;6.00;;;;;20.63;43.76;100839.34;4954164;28;46030;-72
2023/11/28 21:40:20;;;;;;;;;7.00;7.00;;;;;20.63;43.78;100835.91;4955352;28;45434;-71
2023/11/28 21:42:45;;;;;;;;;11.67;7.00;;;;;20.65;43.60;100822.50;4955811;28;45346;-71
2023/11/28 21:45:11;;;;;;;;;11.00;8.50;;;;;20.62;43.50;100824.50;4955183;28;45302;-72
2023/11/28 21:47:36;;;;;;;;;10.50;7.50;;;;;20.61;43.52;100812.25;4944606;28;45409;-71
2023/11/28 21:50:07;;;;;;;;;7.00;7.00;;;;;20.58;43.98;100804.66;4936889;28;45400;-71
2023/11/28 21:52:33;;;;;;;;;8.00;8.00;;;;;20.67;43.92;100817.84;4936953;28;45389;-71
2023/11/28 21:54:58;;;;;;;;;10.00;9.75;;;;;20.65;43.85;100810.09;4936643;28;45417;-71
2023/11/28 21:57:23;;;;;;;;;7.00;7.00;;;;;20.58;43.62;100795.94;4936457;28;45927;-70
2023/11/28 21:59:49;;;;;;;;;9.50;7.25;;;;;20.69;43.98;100810.56;4936818;28;45324;-71
2023/11/28 22:02:14;;;;;;;;;8.00;8.00;;;;;20.68;43.99;100808.94;4937446;28;45380;-74
2023/11/28 22:04:39;;;;;;;;;6.75;6.50;;;;;20.69;43.92;100807.94;4936592;28;45284;-74
2023/11/28 22:07:05;;;;;;;;;7.00;7.00;;;;;20.57;43.88;100781.88;4936825;28;46110;-75
2023/11/28 22:09:30;;;;;;;;;7.67;7.00;;;;;20.53;43.75;100779.78;4936280;28;45370;-74
2023/11/28 22:11:55;;;;;;;;;9.25;9.25;;;;;20.55;44.18;100783.06;4936892;28;45359;-73
2023/11/28 22:14:21;;;;;;;;;7.25;6.00;;;;;20.68;43.95;100803.66;4937037;28;45528;-74
2023/11/28 22:16:47;;;;;;;;;9.50;8.25;;;;;20.62;43.79;100786.66;4939938;28;45231;-74
2023/11/28 22:19:13;;;;;;;;;7.50;6.25;;;;;20.68;44.26;100788.63;4940235;28;45439;-74
2023/11/28 22:21:39;;;;;;;;;11.00;9.75;;;;;20.66;43.80;100785.31;4938621;28;45383;-75
2023/11/28 22:24:05;;;;;;;;;8.00;8.00;;;;;20.68;43.58;100790.44;4939647;28;45275;-74
2023/11/28 22:26:30;;;;;;;;;9.25;8.25;;;;;20.61;43.95;100777.06;4940520;28;45476;-72
2023/11/28 22:28:56;;;;;;;;;6.25;6.25;;;;;20.65;43.79;100786.31;4957569;28;45342;-73
2023/11/28 22:31:21;;;;;;;;;8.00;6.75;;;;;20.69;43.74;100798.19;4944420;28;45394;-74
2023/11/28 22:33:47;;;;;;;;;10.75;9.00;;;;;20.66;43.79;100792.44;4938153;28;45446;-74
2023/11/28 22:36:12;;;;;;;;;8.00;8.00;;;;;20.70;44.14;100793.72;4939215;28;45998;-73
2023/11/28 22:38:37;;;;;;;;;8.25;6.50;;;;;20.66;43.93;100787.16;4939072;28;45387;-74
2023/11/28 22:41:03;;;;;;;;;8.67;8.67;;;;;20.47;43.97;100752.19;4939872;28;45514;-75
2023/11/28 22:43:29;;;;;;;;;11.00;11.00;;;;;20.52;44.17;100757.78;4939814;28;45252;-75
2023/11/28 22:45:55;;;;;;;;;8.75;7.25;;;;;20.68;44.21;100785.16;4939479;28;46110;-77
2023/11/28 22:48:20;;;;;;;;;10.00;8.75;;;;;20.71;44.18;100784.81;4938983;28;45366;-76
2023/11/28 22:50:46;;;;;;;;;17.75;16.75;;;;;20.69;42.40;100782.31;4941259;28;45531;-77
2023/11/28 22:53:12;;;;;;;;;15.25;14.00;;;;;20.62;42.05;100779.56;4949488;28;45528;-75
